Terminal Aerodrome Forecast
Issued by NWS

Home | Current Version | Previous Version | Text Only | Print | Product List | Glossary On
Versions: 1 2 3 4 5 6 7 8 9 10 11 12 13 14 15 16
000
FTUS45 KPSR 231723
TAFIWA
TAF
KIWA 231723Z 2318/2418 24008KT P6SM VCSH FEW040 BKN050 BKN100
      TEMPO 2318/2319 17008G14KT
     FM232100 27014G22KT P6SM FEW040 BKN060
     FM240200 26010KT P6SM FEW080
     FM240600 12007KT P6SM SKC=

USA.gov is the U.S. government's official web portal to all federal, state and local government web resources and services.